sensor_id;sensor_type;location;lat;lon;timestamp;P1;durP1;ratioP1;P2;durP2;ratioP2
58758;SDS011;46777;47.482;19.054;2022-08-06T00:02:09;10.38;;;8.13;;
58758;SDS011;46777;47.482;19.054;2022-08-06T00:04:58;10.45;;;8.45;;
58758;SDS011;46777;47.482;19.054;2022-08-06T00:07:44;9.68;;;8.32;;
58758;SDS011;46777;47.482;19.054;2022-08-06T00:10:29;10.82;;;8.73;;
58758;SDS011;46777;47.482;19.054;2022-08-06T00:13:14;12.35;;;9.25;;
58758;SDS011;46777;47.482;19.054;2022-08-06T00:15:58;11.13;;;10.00;;
58758;SDS011;46777;47.482;19.054;2022-08-06T00:18:43;11.13;;;10.13;;
58758;SDS011;46777;47.482;19.054;2022-08-06T00:21:28;11.02;;;9.55;;
58758;SDS011;46777;47.482;19.054;2022-08-06T00:24:13;11.45;;;10.15;;
58758;SDS011;46777;47.482;19.054;2022-08-06T00:26:58;10.30;;;9.23;;
58758;SDS011;46777;47.482;19.054;2022-08-06T00:29:43;10.52;;;9.48;;
58758;SDS011;46777;47.482;19.054;2022-08-06T00:32:28;11.30;;;9.43;;
58758;SDS011;46777;47.482;19.054;2022-08-06T00:35:13;10.32;;;9.27;;
58758;SDS011;46777;47.482;19.054;2022-08-06T00:37:57;11.60;;;8.60;;
58758;SDS011;46777;47.482;19.054;2022-08-06T00:40:42;10.07;;;8.82;;
58758;SDS011;46777;47.482;19.054;2022-08-06T00:43:27;11.48;;;8.60;;
58758;SDS011;46777;47.482;19.054;2022-08-06T00:46:12;10.13;;;9.10;;
58758;SDS011;46777;47.482;19.054;2022-08-06T00:48:57;11.63;;;9.55;;
58758;SDS011;46777;47.482;19.054;2022-08-06T00:51:42;10.80;;;9.10;;
58758;SDS011;46777;47.482;19.054;2022-08-06T00:54:27;10.70;;;9.18;;
58758;SDS011;46777;47.482;19.054;2022-08-06T00:57:12;10.50;;;8.95;;
58758;SDS011;46777;47.482;19.054;2022-08-06T00:59:56;12.45;;;8.77;;
58758;SDS011;46777;47.482;19.054;2022-08-06T01:02:41;10.23;;;9.15;;
58758;SDS011;46777;47.482;19.054;2022-08-06T01:05:26;9.93;;;8.60;;
58758;SDS011;46777;47.482;19.054;2022-08-06T01:08:11;10.25;;;8.95;;
58758;SDS011;46777;47.482;19.054;2022-08-06T01:10:56;9.85;;;8.65;;
58758;SDS011;46777;47.482;19.054;2022-08-06T01:13:41;13.50;;;8.80;;
58758;SDS011;46777;47.482;19.054;2022-08-06T01:16:33;9.73;;;8.90;;
58758;SDS011;46777;47.482;19.054;2022-08-06T01:25:46;10.35;;;9.15;;
58758;SDS011;46777;47.482;19.054;2022-08-06T01:29:04;9.90;;;9.00;;
58758;SDS011;46777;47.482;19.054;2022-08-06T01:32:03;9.98;;;8.98;;
58758;SDS011;46777;47.482;19.054;2022-08-06T01:34:56;9.88;;;8.88;;
58758;SDS011;46777;47.482;19.054;2022-08-06T01:37:47;9.88;;;8.88;;
58758;SDS011;46777;47.482;19.054;2022-08-06T01:40:44;10.30;;;9.20;;
58758;SDS011;46777;47.482;19.054;2022-08-06T01:43:31;9.90;;;8.55;;
58758;SDS011;46777;47.482;19.054;2022-08-06T01:46:18;10.93;;;8.85;;
58758;SDS011;46777;47.482;19.054;2022-08-06T01:49:03;9.90;;;9.00;;
58758;SDS011;46777;47.482;19.054;2022-08-06T01:51:51;10.25;;;9.18;;
58758;SDS011;46777;47.482;19.054;2022-08-06T01:54:39;9.40;;;8.60;;
58758;SDS011;46777;47.482;19.054;2022-08-06T01:57:27;9.82;;;8.93;;
58758;SDS011;46777;47.482;19.054;2022-08-06T02:00:16;9.55;;;8.65;;
58758;SDS011;46777;47.482;19.054;2022-08-06T02:03:03;9.93;;;9.10;;
58758;SDS011;46777;47.482;19.054;2022-08-06T02:05:55;16.63;;;10.00;;
58758;SDS011;46777;47.482;19.054;2022-08-06T02:08:42;10.05;;;8.90;;
58758;SDS011;46777;47.482;19.054;2022-08-06T02:11:28;10.00;;;9.00;;
58758;SDS011;46777;47.482;19.054;2022-08-06T02:14:14;14.00;;;9.63;;
58758;SDS011;46777;47.482;19.054;2022-08-06T02:17:02;10.82;;;9.70;;
58758;SDS011;46777;47.482;19.054;2022-08-06T02:19:49;12.57;;;9.15;;
58758;SDS011;46777;47.482;19.054;2022-08-06T02:22:36;14.88;;;9.50;;
58758;SDS011;46777;47.482;19.054;2022-08-06T02:25:22;13.10;;;9.18;;
58758;SDS011;46777;47.482;19.054;2022-08-06T02:28:08;10.07;;;8.88;;
58758;SDS011;46777;47.482;19.054;2022-08-06T02:30:56;13.20;;;9.32;;
58758;SDS011;46777;47.482;19.054;2022-08-06T02:33:41;13.35;;;9.68;;
58758;SDS011;46777;47.482;19.054;2022-08-06T02:36:32;9.40;;;8.40;;
58758;SDS011;46777;47.482;19.054;2022-08-06T02:40:07;9.88;;;8.95;;
58758;SDS011;46777;47.482;19.054;2022-08-06T02:42:53;9.50;;;8.55;;
58758;SDS011;46777;47.482;19.054;2022-08-06T02:45:47;8.82;;;8.02;;
58758;SDS011;46777;47.482;19.054;2022-08-06T02:51:32;8.75;;;7.95;;
58758;SDS011;46777;47.482;19.054;2022-08-06T02:54:22;8.75;;;7.90;;
58758;SDS011;46777;47.482;19.054;2022-08-06T02:57:15;9.15;;;8.25;;
58758;SDS011;46777;47.482;19.054;2022-08-06T03:00:06;9.07;;;8.25;;
58758;SDS011;46777;47.482;19.054;2022-08-06T03:02:54;9.02;;;7.93;;
58758;SDS011;46777;47.482;19.054;2022-08-06T03:05:42;8.88;;;7.97;;
58758;SDS011;46777;47.482;19.054;2022-08-06T03:08:29;8.90;;;8.00;;
58758;SDS011;46777;47.482;19.054;2022-08-06T03:11:15;8.48;;;7.57;;
58758;SDS011;46777;47.482;19.054;2022-08-06T03:14:01;8.23;;;7.43;;
58758;SDS011;46777;47.482;19.054;2022-08-06T03:16:47;8.73;;;7.93;;
58758;SDS011;46777;47.482;19.054;2022-08-06T03:19:33;9.05;;;7.57;;
58758;SDS011;46777;47.482;19.054;2022-08-06T03:22:20;8.63;;;7.93;;
58758;SDS011;46777;47.482;19.054;2022-08-06T03:25:07;8.68;;;7.85;;
58758;SDS011;46777;47.482;19.054;2022-08-06T03:27:54;9.13;;;8.25;;
58758;SDS011;46777;47.482;19.054;2022-08-06T03:30:40;8.90;;;7.82;;
58758;SDS011;46777;47.482;19.054;2022-08-06T03:33:25;8.70;;;7.80;;
58758;SDS011;46777;47.482;19.054;2022-08-06T03:36:10;9.43;;;7.90;;
58758;SDS011;46777;47.482;19.054;2022-08-06T03:39:00;8.65;;;7.82;;
58758;SDS011;46777;47.482;19.054;2022-08-06T03:41:47;8.88;;;7.97;;
58758;SDS011;46777;47.482;19.054;2022-08-06T03:44:33;8.57;;;7.80;;
58758;SDS011;46777;47.482;19.054;2022-08-06T03:50:09;10.38;;;8.32;;
58758;SDS011;46777;47.482;19.054;2022-08-06T03:52:58;9.57;;;8.50;;
58758;SDS011;46777;47.482;19.054;2022-08-06T03:55:46;9.75;;;8.82;;
58758;SDS011;46777;47.482;19.054;2022-08-06T03:58:32;9.35;;;8.43;;
58758;SDS011;46777;47.482;19.054;2022-08-06T04:01:23;9.30;;;8.50;;
58758;SDS011;46777;47.482;19.054;2022-08-06T04:04:10;9.38;;;8.57;;
58758;SDS011;46777;47.482;19.054;2022-08-06T04:06:57;9.85;;;8.77;;
58758;SDS011;46777;47.482;19.054;2022-08-06T04:09:42;9.70;;;8.90;;
58758;SDS011;46777;47.482;19.054;2022-08-06T04:12:29;9.50;;;8.60;;
58758;SDS011;46777;47.482;19.054;2022-08-06T04:15:15;10.02;;;8.93;;
58758;SDS011;46777;47.482;19.054;2022-08-06T04:18:00;9.45;;;8.60;;
58758;SDS011;46777;47.482;19.054;2022-08-06T04:20:46;9.98;;;9.07;;
58758;SDS011;46777;47.482;19.054;2022-08-06T04:23:33;9.05;;;8.23;;
58758;SDS011;46777;47.482;19.054;2022-08-06T04:26:21;9.63;;;8.75;;
58758;SDS011;46777;47.482;19.054;2022-08-06T04:29:09;9.75;;;8.85;;
58758;SDS011;46777;47.482;19.054;2022-08-06T04:31:56;9.63;;;8.55;;
58758;SDS011;46777;47.482;19.054;2022-08-06T04:34:42;9.02;;;8.13;;
58758;SDS011;46777;47.482;19.054;2022-08-06T04:37:28;11.57;;;8.52;;
58758;SDS011;46777;47.482;19.054;2022-08-06T04:40:13;9.73;;;8.32;;
58758;SDS011;46777;47.482;19.054;2022-08-06T04:42:58;10.45;;;8.52;;
58758;SDS011;46777;47.482;19.054;2022-08-06T04:45:44;9.77;;;8.80;;
58758;SDS011;46777;47.482;19.054;2022-08-06T04:48:28;9.65;;;8.75;;
58758;SDS011;46777;47.482;19.054;2022-08-06T04:51:14;9.55;;;8.52;;
58758;SDS011;46777;47.482;19.054;2022-08-06T04:53:59;9.90;;;8.98;;
58758;SDS011;46777;47.482;19.054;2022-08-06T04:56:43;10.00;;;9.00;;
58758;SDS011;46777;47.482;19.054;2022-08-06T04:59:28;9.63;;;8.73;;
58758;SDS011;46777;47.482;19.054;2022-08-06T05:02:13;10.38;;;9.20;;
58758;SDS011;46777;47.482;19.054;2022-08-06T05:04:58;9.90;;;8.90;;
58758;SDS011;46777;47.482;19.054;2022-08-06T05:07:43;10.23;;;9.20;;
58758;SDS011;46777;47.482;19.054;2022-08-06T05:10:37;12.25;;;9.15;;
58758;SDS011;46777;47.482;19.054;2022-08-06T05:13:47;10.50;;;9.50;;
58758;SDS011;46777;47.482;19.054;2022-08-06T05:16:36;11.00;;;9.13;;
58758;SDS011;46777;47.482;19.054;2022-08-06T05:19:27;10.00;;;9.00;;
58758;SDS011;46777;47.482;19.054;2022-08-06T05:22:17;9.77;;;8.98;;
58758;SDS011;46777;47.482;19.054;2022-08-06T05:25:05;9.95;;;8.93;;
58758;SDS011;46777;47.482;19.054;2022-08-06T05:27:50;10.93;;;9.02;;
58758;SDS011;46777;47.482;19.054;2022-08-06T05:30:42;9.65;;;8.65;;
58758;SDS011;46777;47.482;19.054;2022-08-06T05:33:32;10.70;;;8.75;;
58758;SDS011;46777;47.482;19.054;2022-08-06T05:36:18;9.70;;;8.90;;
58758;SDS011;46777;47.482;19.054;2022-08-06T05:39:02;9.55;;;8.65;;
58758;SDS011;46777;47.482;19.054;2022-08-06T05:41:47;9.95;;;9.00;;
58758;SDS011;46777;47.482;19.054;2022-08-06T05:44:32;8.82;;;7.88;;
58758;SDS011;46777;47.482;19.054;2022-08-06T05:47:19;9.25;;;8.25;;
58758;SDS011;46777;47.482;19.054;2022-08-06T05:50:11;8.60;;;7.88;;
58758;SDS011;46777;47.482;19.054;2022-08-06T05:53:09;9.02;;;8.13;;
58758;SDS011;46777;47.482;19.054;2022-08-06T05:55:58;8.70;;;7.80;;
58758;SDS011;46777;47.482;19.054;2022-08-06T05:58:53;10.27;;;8.43;;
58758;SDS011;46777;47.482;19.054;2022-08-06T06:01:41;11.45;;;8.05;;
58758;SDS011;46777;47.482;19.054;2022-08-06T06:04:26;9.00;;;8.10;;
58758;SDS011;46777;47.482;19.054;2022-08-06T06:07:11;9.07;;;8.18;;
58758;SDS011;46777;47.482;19.054;2022-08-06T06:09:56;9.05;;;8.15;;
58758;SDS011;46777;47.482;19.054;2022-08-06T06:12:41;9.23;;;8.10;;
58758;SDS011;46777;47.482;19.054;2022-08-06T06:15:27;8.80;;;7.97;;
58758;SDS011;46777;47.482;19.054;2022-08-06T06:18:27;8.68;;;7.88;;
58758;SDS011;46777;47.482;19.054;2022-08-06T06:21:27;8.90;;;7.90;;
58758;SDS011;46777;47.482;19.054;2022-08-06T06:24:22;9.60;;;8.50;;
58758;SDS011;46777;47.482;19.054;2022-08-06T06:30:15;10.60;;;8.20;;
58758;SDS011;46777;47.482;19.054;2022-08-06T06:33:28;10.48;;;8.15;;
58758;SDS011;46777;47.482;19.054;2022-08-06T06:39:36;9.93;;;8.82;;
58758;SDS011;46777;47.482;19.054;2022-08-06T06:42:28;9.80;;;8.50;;
58758;SDS011;46777;47.482;19.054;2022-08-06T06:48:50;10.63;;;8.50;;
58758;SDS011;46777;47.482;19.054;2022-08-06T06:51:46;12.93;;;8.50;;
58758;SDS011;46777;47.482;19.054;2022-08-06T06:54:40;9.27;;;8.35;;
58758;SDS011;46777;47.482;19.054;2022-08-06T06:57:32;9.77;;;8.00;;
58758;SDS011;46777;47.482;19.054;2022-08-06T07:00:20;9.77;;;8.88;;
58758;SDS011;46777;47.482;19.054;2022-08-06T07:03:05;9.52;;;8.52;;
58758;SDS011;46777;47.482;19.054;2022-08-06T07:05:51;9.13;;;8.25;;
58758;SDS011;46777;47.482;19.054;2022-08-06T07:08:41;8.82;;;8.02;;
58758;SDS011;46777;47.482;19.054;2022-08-06T07:11:29;11.63;;;8.77;;
58758;SDS011;46777;47.482;19.054;2022-08-06T07:14:16;9.02;;;8.13;;
58758;SDS011;46777;47.482;19.054;2022-08-06T07:17:05;8.82;;;7.93;;
58758;SDS011;46777;47.482;19.054;2022-08-06T07:19:51;9.00;;;8.10;;
58758;SDS011;46777;47.482;19.054;2022-08-06T07:22:39;9.18;;;8.20;;
58758;SDS011;46777;47.482;19.054;2022-08-06T07:25:26;9.73;;;8.52;;
58758;SDS011;46777;47.482;19.054;2022-08-06T07:28:12;8.98;;;8.07;;
58758;SDS011;46777;47.482;19.054;2022-08-06T07:30:59;11.02;;;7.88;;
58758;SDS011;46777;47.482;19.054;2022-08-06T07:33:47;9.85;;;8.50;;
58758;SDS011;46777;47.482;19.054;2022-08-06T07:36:33;8.73;;;7.82;;
58758;SDS011;46777;47.482;19.054;2022-08-06T07:39:24;9.25;;;8.10;;
58758;SDS011;46777;47.482;19.054;2022-08-06T07:42:15;9.27;;;8.30;;
58758;SDS011;46777;47.482;19.054;2022-08-06T07:45:02;9.52;;;8.65;;
58758;SDS011;46777;47.482;19.054;2022-08-06T07:47:49;9.38;;;8.50;;
58758;SDS011;46777;47.482;19.054;2022-08-06T07:50:37;9.20;;;8.30;;
58758;SDS011;46777;47.482;19.054;2022-08-06T07:53:24;9.73;;;8.70;;
58758;SDS011;46777;47.482;19.054;2022-08-06T07:56:10;9.05;;;8.18;;
58758;SDS011;46777;47.482;19.054;2022-08-06T07:58:56;9.25;;;8.35;;
58758;SDS011;46777;47.482;19.054;2022-08-06T08:01:42;8.98;;;8.18;;
58758;SDS011;46777;47.482;19.054;2022-08-06T08:04:28;9.10;;;8.18;;
58758;SDS011;46777;47.482;19.054;2022-08-06T08:07:32;9.30;;;8.40;;
58758;SDS011;46777;47.482;19.054;2022-08-06T08:10:17;9.35;;;8.45;;
58758;SDS011;46777;47.482;19.054;2022-08-06T08:13:03;10.02;;;9.05;;
58758;SDS011;46777;47.482;19.054;2022-08-06T08:15:48;9.60;;;8.70;;
58758;SDS011;46777;47.482;19.054;2022-08-06T08:18:34;9.30;;;8.52;;
58758;SDS011;46777;47.482;19.054;2022-08-06T08:21:19;10.32;;;9.43;;
58758;SDS011;46777;47.482;19.054;2022-08-06T08:24:04;9.82;;;8.90;;
58758;SDS011;46777;47.482;19.054;2022-08-06T08:26:49;12.45;;;11.32;;
58758;SDS011;46777;47.482;19.054;2022-08-06T08:29:34;9.32;;;8.55;;
58758;SDS011;46777;47.482;19.054;2022-08-06T08:32:20;9.43;;;8.73;;
58758;SDS011;46777;47.482;19.054;2022-08-06T08:35:05;9.05;;;8.35;;
58758;SDS011;46777;47.482;19.054;2022-08-06T08:37:49;10.13;;;8.50;;
58758;SDS011;46777;47.482;19.054;2022-08-06T08:40:34;9.40;;;8.50;;
58758;SDS011;46777;47.482;19.054;2022-08-06T08:43:25;9.80;;;8.80;;
58758;SDS011;46777;47.482;19.054;2022-08-06T08:46:14;9.27;;;8.40;;
58758;SDS011;46777;47.482;19.054;2022-08-06T08:49:01;9.57;;;8.77;;
58758;SDS011;46777;47.482;19.054;2022-08-06T08:51:47;9.50;;;8.70;;
58758;SDS011;46777;47.482;19.054;2022-08-06T08:54:34;9.05;;;8.25;;
58758;SDS011;46777;47.482;19.054;2022-08-06T08:57:20;9.57;;;8.55;;
58758;SDS011;46777;47.482;19.054;2022-08-06T09:00:06;9.80;;;9.00;;
58758;SDS011;46777;47.482;19.054;2022-08-06T09:02:52;9.20;;;8.40;;
58758;SDS011;46777;47.482;19.054;2022-08-06T09:05:37;8.18;;;7.47;;
58758;SDS011;46777;47.482;19.054;2022-08-06T09:08:21;9.70;;;7.78;;
58758;SDS011;46777;47.482;19.054;2022-08-06T09:11:06;8.75;;;7.85;;
58758;SDS011;46777;47.482;19.054;2022-08-06T09:13:51;8.55;;;7.70;;
58758;SDS011;46777;47.482;19.054;2022-08-06T09:16:36;10.48;;;7.90;;
58758;SDS011;46777;47.482;19.054;2022-08-06T09:19:21;11.55;;;7.80;;
58758;SDS011;46777;47.482;19.054;2022-08-06T09:22:06;8.43;;;7.03;;
58758;SDS011;46777;47.482;19.054;2022-08-06T09:24:51;8.45;;;7.55;;
58758;SDS011;46777;47.482;19.054;2022-08-06T09:27:36;9.55;;;7.50;;
58758;SDS011;46777;47.482;19.054;2022-08-06T09:30:21;8.32;;;7.53;;
58758;SDS011;46777;47.482;19.054;2022-08-06T09:33:12;8.90;;;7.90;;
58758;SDS011;46777;47.482;19.054;2022-08-06T09:35:57;8.23;;;7.50;;
58758;SDS011;46777;47.482;19.054;2022-08-06T09:38:47;8.88;;;7.72;;
58758;SDS011;46777;47.482;19.054;2022-08-06T09:41:33;8.60;;;7.82;;
58758;SDS011;46777;47.482;19.054;2022-08-06T09:44:19;7.82;;;7.22;;
58758;SDS011;46777;47.482;19.054;2022-08-06T09:47:04;8.60;;;7.80;;
58758;SDS011;46777;47.482;19.054;2022-08-06T09:49:50;8.25;;;7.43;;
58758;SDS011;46777;47.482;19.054;2022-08-06T09:52:35;8.05;;;7.25;;
58758;SDS011;46777;47.482;19.054;2022-08-06T09:55:30;8.98;;;7.47;;
58758;SDS011;46777;47.482;19.054;2022-08-06T09:58:29;8.07;;;7.00;;
58758;SDS011;46777;47.482;19.054;2022-08-06T10:01:22;8.35;;;7.55;;
58758;SDS011;46777;47.482;19.054;2022-08-06T10:04:12;8.00;;;7.20;;
58758;SDS011;46777;47.482;19.054;2022-08-06T10:07:27;8.48;;;7.20;;
58758;SDS011;46777;47.482;19.054;2022-08-06T10:10:13;8.52;;;7.80;;
58758;SDS011;46777;47.482;19.054;2022-08-06T10:13:09;7.40;;;6.70;;
58758;SDS011;46777;47.482;19.054;2022-08-06T10:16:18;7.60;;;6.97;;
58758;SDS011;46777;47.482;19.054;2022-08-06T10:19:15;8.00;;;6.80;;
58758;SDS011;46777;47.482;19.054;2022-08-06T10:22:08;9.85;;;7.55;;
58758;SDS011;46777;47.482;19.054;2022-08-06T10:25:00;9.18;;;7.00;;
58758;SDS011;46777;47.482;19.054;2022-08-06T10:27:46;7.75;;;7.05;;
58758;SDS011;46777;47.482;19.054;2022-08-06T10:30:32;8.63;;;6.93;;
58758;SDS011;46777;47.482;19.054;2022-08-06T10:33:17;7.22;;;6.55;;
58758;SDS011;46777;47.482;19.054;2022-08-06T10:36:04;7.07;;;6.38;;
58758;SDS011;46777;47.482;19.054;2022-08-06T10:38:53;7.68;;;6.97;;
58758;SDS011;46777;47.482;19.054;2022-08-06T10:41:39;7.22;;;6.68;;
58758;SDS011;46777;47.482;19.054;2022-08-06T10:44:25;6.90;;;6.40;;
58758;SDS011;46777;47.482;19.054;2022-08-06T10:47:11;8.70;;;6.80;;
58758;SDS011;46777;47.482;19.054;2022-08-06T10:49:56;7.53;;;6.70;;
58758;SDS011;46777;47.482;19.054;2022-08-06T10:52:42;7.95;;;7.18;;
58758;SDS011;46777;47.482;19.054;2022-08-06T10:55:28;7.53;;;6.82;;
58758;SDS011;46777;47.482;19.054;2022-08-06T10:58:13;7.97;;;7.20;;
58758;SDS011;46777;47.482;19.054;2022-08-06T11:00:59;7.75;;;6.82;;
58758;SDS011;46777;47.482;19.054;2022-08-06T11:04:09;8.07;;;7.47;;
58758;SDS011;46777;47.482;19.054;2022-08-06T11:16:53;7.47;;;6.78;;
58758;SDS011;46777;47.482;19.054;2022-08-06T11:22:35;7.57;;;6.97;;
58758;SDS011;46777;47.482;19.054;2022-08-06T11:31:49;7.85;;;7.15;;
58758;SDS011;46777;47.482;19.054;2022-08-06T11:34:40;8.45;;;7.63;;
58758;SDS011;46777;47.482;19.054;2022-08-06T11:37:42;7.95;;;7.25;;
58758;SDS011;46777;47.482;19.054;2022-08-06T11:40:52;7.40;;;6.80;;
58758;SDS011;46777;47.482;19.054;2022-08-06T11:46:38;8.50;;;7.70;;
58758;SDS011;46777;47.482;19.054;2022-08-06T11:49:34;8.55;;;7.70;;
58758;SDS011;46777;47.482;19.054;2022-08-06T11:55:18;8.82;;;7.95;;
58758;SDS011;46777;47.482;19.054;2022-08-06T12:01:02;8.80;;;7.95;;
58758;SDS011;46777;47.482;19.054;2022-08-06T12:03:47;8.50;;;7.72;;
58758;SDS011;46777;47.482;19.054;2022-08-06T12:06:32;9.10;;;8.18;;
58758;SDS011;46777;47.482;19.054;2022-08-06T12:09:17;8.45;;;7.45;;
58758;SDS011;46777;47.482;19.054;2022-08-06T12:17:58;9.90;;;9.00;;
58758;SDS011;46777;47.482;19.054;2022-08-06T12:20:43;9.90;;;8.90;;
58758;SDS011;46777;47.482;19.054;2022-08-06T12:23:28;10.23;;;9.38;;
58758;SDS011;46777;47.482;19.054;2022-08-06T12:26:13;11.57;;;9.38;;
58758;SDS011;46777;47.482;19.054;2022-08-06T12:29:00;9.95;;;8.80;;
58758;SDS011;46777;47.482;19.054;2022-08-06T12:31:46;10.32;;;9.43;;
58758;SDS011;46777;47.482;19.054;2022-08-06T12:34:31;12.57;;;9.63;;
58758;SDS011;46777;47.482;19.054;2022-08-06T12:37:17;11.48;;;10.38;;
58758;SDS011;46777;47.482;19.054;2022-08-06T12:40:12;10.68;;;9.65;;
58758;SDS011;46777;47.482;19.054;2022-08-06T12:43:09;11.52;;;10.52;;
58758;SDS011;46777;47.482;19.054;2022-08-06T12:45:58;14.05;;;10.95;;
58758;SDS011;46777;47.482;19.054;2022-08-06T12:48:46;13.57;;;11.48;;
58758;SDS011;46777;47.482;19.054;2022-08-06T12:54:16;12.50;;;11.43;;
58758;SDS011;46777;47.482;19.054;2022-08-06T12:57:01;12.43;;;11.52;;
58758;SDS011;46777;47.482;19.054;2022-08-06T12:59:46;12.48;;;11.30;;
58758;SDS011;46777;47.482;19.054;2022-08-06T13:02:31;11.80;;;10.80;;
58758;SDS011;46777;47.482;19.054;2022-08-06T13:05:16;13.18;;;12.10;;
58758;SDS011;46777;47.482;19.054;2022-08-06T13:08:02;12.73;;;11.57;;
58758;SDS011;46777;47.482;19.054;2022-08-06T13:10:48;11.85;;;10.75;;
58758;SDS011;46777;47.482;19.054;2022-08-06T13:13:36;12.30;;;11.40;;
58758;SDS011;46777;47.482;19.054;2022-08-06T13:16:23;12.18;;;11.18;;
58758;SDS011;46777;47.482;19.054;2022-08-06T13:19:08;11.23;;;10.18;;
58758;SDS011;46777;47.482;19.054;2022-08-06T13:24:44;10.82;;;9.93;;
58758;SDS011;46777;47.482;19.054;2022-08-06T13:27:32;10.80;;;9.75;;
58758;SDS011;46777;47.482;19.054;2022-08-06T13:30:18;10.65;;;9.77;;
58758;SDS011;46777;47.482;19.054;2022-08-06T13:36:05;12.60;;;10.05;;
58758;SDS011;46777;47.482;19.054;2022-08-06T13:38:51;10.93;;;10.02;;
58758;SDS011;46777;47.482;19.054;2022-08-06T13:41:36;10.65;;;9.75;;
58758;SDS011;46777;47.482;19.054;2022-08-06T13:44:31;11.90;;;10.82;;
58758;SDS011;46777;47.482;19.054;2022-08-06T13:47:25;12.23;;;11.23;;
58758;SDS011;46777;47.482;19.054;2022-08-06T13:50:11;12.20;;;10.63;;
58758;SDS011;46777;47.482;19.054;2022-08-06T13:52:56;11.88;;;10.88;;
58758;SDS011;46777;47.482;19.054;2022-08-06T13:55:44;12.30;;;10.77;;
58758;SDS011;46777;47.482;19.054;2022-08-06T13:58:29;12.13;;;11.13;;
58758;SDS011;46777;47.482;19.054;2022-08-06T14:01:14;12.13;;;11.02;;
58758;SDS011;46777;47.482;19.054;2022-08-06T14:03:59;11.77;;;10.70;;
58758;SDS011;46777;47.482;19.054;2022-08-06T14:06:44;10.93;;;10.02;;
58758;SDS011;46777;47.482;19.054;2022-08-06T14:09:29;11.35;;;10.23;;
58758;SDS011;46777;47.482;19.054;2022-08-06T14:12:14;11.10;;;10.00;;
58758;SDS011;46777;47.482;19.054;2022-08-06T14:14:59;10.55;;;9.65;;
58758;SDS011;46777;47.482;19.054;2022-08-06T14:17:44;10.88;;;9.88;;
58758;SDS011;46777;47.482;19.054;2022-08-06T14:20:29;10.65;;;9.55;;
58758;SDS011;46777;47.482;19.054;2022-08-06T14:23:14;9.48;;;8.60;;
58758;SDS011;46777;47.482;19.054;2022-08-06T14:25:59;10.02;;;9.10;;
58758;SDS011;46777;47.482;19.054;2022-08-06T14:28:46;10.38;;;9.35;;
58758;SDS011;46777;47.482;19.054;2022-08-06T14:31:31;9.90;;;8.95;;
58758;SDS011;46777;47.482;19.054;2022-08-06T14:34:18;9.60;;;8.65;;
58758;SDS011;46777;47.482;19.054;2022-08-06T14:37:03;9.93;;;9.02;;
58758;SDS011;46777;47.482;19.054;2022-08-06T14:39:48;9.48;;;8.52;;
58758;SDS011;46777;47.482;19.054;2022-08-06T14:42:33;10.77;;;8.65;;
58758;SDS011;46777;47.482;19.054;2022-08-06T14:45:36;9.32;;;8.40;;
58758;SDS011;46777;47.482;19.054;2022-08-06T14:48:21;13.65;;;12.60;;
58758;SDS011;46777;47.482;19.054;2022-08-06T14:51:06;9.98;;;8.60;;
58758;SDS011;46777;47.482;19.054;2022-08-06T14:53:51;8.45;;;7.75;;
58758;SDS011;46777;47.482;19.054;2022-08-06T14:56:36;8.52;;;7.72;;
58758;SDS011;46777;47.482;19.054;2022-08-06T14:59:21;8.48;;;7.60;;
58758;SDS011;46777;47.482;19.054;2022-08-06T15:02:06;9.02;;;7.70;;
58758;SDS011;46777;47.482;19.054;2022-08-06T15:04:52;7.47;;;6.88;;
58758;SDS011;46777;47.482;19.054;2022-08-06T15:07:38;8.07;;;7.30;;
58758;SDS011;46777;47.482;19.054;2022-08-06T15:10:22;6.78;;;6.10;;
58758;SDS011;46777;47.482;19.054;2022-08-06T15:13:07;7.45;;;6.70;;
58758;SDS011;46777;47.482;19.054;2022-08-06T15:15:52;9.20;;;6.57;;
58758;SDS011;46777;47.482;19.054;2022-08-06T15:18:37;6.97;;;6.38;;
58758;SDS011;46777;47.482;19.054;2022-08-06T15:21:22;8.15;;;6.78;;
58758;SDS011;46777;47.482;19.054;2022-08-06T15:24:07;7.05;;;6.45;;
58758;SDS011;46777;47.482;19.054;2022-08-06T15:26:52;8.45;;;6.57;;
58758;SDS011;46777;47.482;19.054;2022-08-06T15:29:38;7.20;;;6.50;;
58758;SDS011;46777;47.482;19.054;2022-08-06T15:32:23;6.75;;;6.05;;
58758;SDS011;46777;47.482;19.054;2022-08-06T15:35:08;6.82;;;6.15;;
58758;SDS011;46777;47.482;19.054;2022-08-06T15:37:53;6.95;;;6.20;;
58758;SDS011;46777;47.482;19.054;2022-08-06T15:40:38;6.88;;;6.28;;
58758;SDS011;46777;47.482;19.054;2022-08-06T15:43:23;7.97;;;6.00;;
58758;SDS011;46777;47.482;19.054;2022-08-06T15:46:11;5.88;;;5.15;;
58758;SDS011;46777;47.482;19.054;2022-08-06T15:48:56;6.35;;;5.53;;
58758;SDS011;46777;47.482;19.054;2022-08-06T15:51:43;8.35;;;5.65;;
58758;SDS011;46777;47.482;19.054;2022-08-06T15:54:28;7.15;;;6.45;;
58758;SDS011;46777;47.482;19.054;2022-08-06T15:57:14;6.43;;;5.80;;
58758;SDS011;46777;47.482;19.054;2022-08-06T16:00:00;6.90;;;6.20;;
58758;SDS011;46777;47.482;19.054;2022-08-06T16:02:45;8.95;;;6.18;;
58758;SDS011;46777;47.482;19.054;2022-08-06T16:05:29;6.65;;;6.05;;
58758;SDS011;46777;47.482;19.054;2022-08-06T16:08:14;7.43;;;6.00;;
58758;SDS011;46777;47.482;19.054;2022-08-06T16:10:59;6.60;;;5.93;;
58758;SDS011;46777;47.482;19.054;2022-08-06T16:13:44;7.07;;;6.32;;
58758;SDS011;46777;47.482;19.054;2022-08-06T16:16:29;7.05;;;6.35;;
58758;SDS011;46777;47.482;19.054;2022-08-06T16:19:16;6.90;;;6.28;;
58758;SDS011;46777;47.482;19.054;2022-08-06T16:22:01;8.32;;;6.68;;
58758;SDS011;46777;47.482;19.054;2022-08-06T16:24:46;7.68;;;7.00;;
58758;SDS011;46777;47.482;19.054;2022-08-06T16:27:31;7.35;;;6.75;;
58758;SDS011;46777;47.482;19.054;2022-08-06T16:30:16;7.88;;;7.10;;
58758;SDS011;46777;47.482;19.054;2022-08-06T16:33:01;7.07;;;6.38;;
58758;SDS011;46777;47.482;19.054;2022-08-06T16:35:46;7.05;;;6.35;;
58758;SDS011;46777;47.482;19.054;2022-08-06T16:38:34;11.02;;;6.13;;
58758;SDS011;46777;47.482;19.054;2022-08-06T16:41:19;6.65;;;5.90;;
58758;SDS011;46777;47.482;19.054;2022-08-06T16:44:03;6.65;;;6.05;;
58758;SDS011;46777;47.482;19.054;2022-08-06T16:46:48;6.10;;;5.57;;
58758;SDS011;46777;47.482;19.054;2022-08-06T16:49:34;6.32;;;5.82;;
58758;SDS011;46777;47.482;19.054;2022-08-06T16:52:19;6.85;;;6.18;;
58758;SDS011;46777;47.482;19.054;2022-08-06T16:55:04;6.20;;;5.70;;
58758;SDS011;46777;47.482;19.054;2022-08-06T16:57:49;7.10;;;6.50;;
58758;SDS011;46777;47.482;19.054;2022-08-06T17:00:34;6.60;;;6.00;;
58758;SDS011;46777;47.482;19.054;2022-08-06T17:03:20;6.50;;;5.90;;
58758;SDS011;46777;47.482;19.054;2022-08-06T17:06:05;6.13;;;5.63;;
58758;SDS011;46777;47.482;19.054;2022-08-06T17:08:49;6.57;;;5.97;;
58758;SDS011;46777;47.482;19.054;2022-08-06T17:11:34;7.03;;;6.10;;
58758;SDS011;46777;47.482;19.054;2022-08-06T17:14:19;6.90;;;6.30;;
58758;SDS011;46777;47.482;19.054;2022-08-06T17:17:06;6.40;;;5.80;;
58758;SDS011;46777;47.482;19.054;2022-08-06T17:19:51;6.90;;;5.90;;
58758;SDS011;46777;47.482;19.054;2022-08-06T17:22:36;6.43;;;5.85;;
58758;SDS011;46777;47.482;19.054;2022-08-06T17:25:21;7.03;;;6.32;;
58758;SDS011;46777;47.482;19.054;2022-08-06T17:28:07;6.00;;;5.50;;
58758;SDS011;46777;47.482;19.054;2022-08-06T17:30:51;6.30;;;5.80;;
58758;SDS011;46777;47.482;19.054;2022-08-06T17:33:36;6.38;;;5.60;;